Time;durP1;ratioP1;P1;durP2;ratioP2;P2;SDS_P1;SDS_P2;PMS_P1;PMS_P2;Temp;Humidity;BMP_temperature;BMP_pressure;BME280_temperature;BME280_humidity;BME280_pressure;Samples;Min_cycle;Max_cycle;Signal;HPM_P1;HPM_P2
2022/05/08 00:01:22;;;;;;;4.30;3.00;;;15.00;99.90;;;;;;10429802;28;20076;-59
2022/05/08 00:06:24;;;;;;;5.05;2.92;;;15.00;99.90;;;;;;10433362;28;20115;-60
2022/05/08 00:11:26;;;;;;;5.40;3.50;;;15.00;99.90;;;;;;10379470;28;20144;-60
2022/05/08 00:16:27;;;;;;;5.95;3.58;;;14.90;99.90;;;;;;10434148;28;20492;-59
2022/05/08 00:21:29;;;;;;;3.83;2.88;;;14.90;99.90;;;;;;10436216;28;20067;-58
2022/05/08 00:26:31;;;;;;;5.10;3.10;;;14.80;99.90;;;;;;10408408;28;20047;-60
2022/05/08 00:31:32;;;;;;;7.80;3.22;;;14.80;99.90;;;;;;10433684;28;20057;-58
2022/05/08 00:36:34;;;;;;;9.65;3.70;;;14.70;99.90;;;;;;10422047;28;20081;-60
2022/05/08 00:41:36;;;;;;;6.63;3.30;;;14.70;99.90;;;;;;10434358;28;20125;-58
2022/05/08 00:46:38;;;;;;;8.18;3.88;;;14.60;99.90;;;;;;10417311;28;20114;-59
2022/05/08 00:51:39;;;;;;;6.72;3.05;;;14.60;99.90;;;;;;10423315;28;20064;-59
2022/05/08 00:56:42;;;;;;;5.15;3.22;;;14.50;99.90;;;;;;10426136;28;20053;-60
2022/05/08 01:01:44;;;;;;;9.30;3.33;;;14.40;99.90;;;;;;10420454;28;20572;-59
2022/05/08 01:06:51;;;;;;;5.15;3.33;;;14.40;99.90;;;;;;10421401;28;20052;-59
2022/05/08 01:11:54;;;;;;;7.00;3.75;;;14.30;99.90;;;;;;10433517;28;20459;-58
2022/05/08 01:16:55;;;;;;;6.07;3.67;;;14.30;99.90;;;;;;10428696;28;20053;-59
2022/05/08 01:21:57;;;;;;;5.70;3.63;;;14.20;99.90;;;;;;10408957;28;20126;-58
2022/05/08 01:26:59;;;;;;;8.60;3.67;;;14.20;99.90;;;;;;10433432;28;20063;-59
2022/05/08 01:32:01;;;;;;;5.53;3.45;;;14.10;99.90;;;;;;10437045;28;20069;-58
2022/05/08 01:37:03;;;;;;;9.65;3.65;;;14.00;99.90;;;;;;10405756;28;20050;-60
2022/05/08 01:42:06;;;;;;;9.55;3.70;;;14.00;99.90;;;;;;10416887;28;20065;-59
2022/05/08 01:52:28;;;;;;;6.53;3.38;;;13.80;99.90;;;;;;10413184;28;20068;-58
2022/05/08 01:57:29;;;;;;;7.20;3.70;;;13.80;99.90;;;;;;10413641;28;20069;-59
2022/05/08 02:02:32;;;;;;;5.00;3.33;;;13.80;99.90;;;;;;10422877;28;20572;-57
2022/05/08 02:07:35;;;;;;;8.57;3.80;;;13.70;99.90;;;;;;10400414;28;20128;-59
2022/05/08 02:12:37;;;;;;;5.95;3.83;;;13.70;99.90;;;;;;10421437;28;20072;-59
2022/05/08 02:17:39;;;;;;;5.47;3.40;;;13.50;99.90;;;;;;10418635;28;20111;-59
2022/05/08 02:22:41;;;;;;;6.03;3.25;;;13.50;99.90;;;;;;10426307;28;20049;-58
2022/05/08 02:27:44;;;;;;;8.70;3.78;;;13.40;99.90;;;;;;10418810;28;20061;-59
2022/05/08 02:32:46;;;;;;;6.18;3.40;;;13.40;99.90;;;;;;10392945;28;20046;-58
2022/05/08 02:37:50;;;;;;;5.70;3.22;;;13.30;99.90;;;;;;10347674;28;20084;-59
2022/05/08 02:42:53;;;;;;;5.20;3.40;;;13.30;99.90;;;;;;10377603;28;21648;-58
2022/05/08 02:47:56;;;;;;;6.43;3.30;;;13.20;99.90;;;;;;10377130;28;20068;-59
2022/05/08 02:52:58;;;;;;;7.20;3.67;;;13.20;99.90;;;;;;10350334;28;20112;-58
2022/05/08 03:03:20;;;;;;;7.25;4.18;;;13.10;99.90;;;;;;10380540;28;20054;-58
2022/05/08 03:08:22;;;;;;;4.43;2.90;;;13.00;99.90;;;;;;10360989;28;20058;-59
2022/05/08 03:13:24;;;;;;;4.75;2.97;;;13.00;99.90;;;;;;10386244;28;20053;-59
2022/05/08 03:18:25;;;;;;;5.95;3.20;;;12.90;99.90;;;;;;10384377;28;22068;-58
2022/05/08 03:23:28;;;;;;;5.05;3.33;;;12.90;99.90;;;;;;10384166;28;20050;-58
2022/05/08 03:28:30;;;;;;;7.72;3.28;;;12.90;99.90;;;;;;10375352;28;20107;-59
2022/05/08 03:33:33;;;;;;;7.10;4.03;;;12.90;99.90;;;;;;10384981;28;20045;-59
2022/05/08 03:38:40;;;;;;;6.82;3.15;;;12.80;99.90;;;;;;10382079;28;20049;-59
2022/05/08 03:43:46;;;;;;;5.63;3.37;;;12.80;99.90;;;;;;10385109;28;20049;-59
2022/05/08 03:48:48;;;;;;;9.05;4.25;;;12.80;99.90;;;;;;10370807;28;20173;-59
2022/05/08 03:53:50;;;;;;;7.25;3.72;;;12.90;99.90;;;;;;10383807;28;20112;-59
2022/05/08 03:58:52;;;;;;;12.77;4.55;;;12.90;99.90;;;;;;10378395;28;20053;-58
2022/05/08 04:03:53;;;;;;;6.28;3.65;;;13.00;99.90;;;;;;10378612;28;20119;-60
2022/05/08 04:08:55;;;;;;;6.68;4.05;;;13.10;99.90;;;;;;10383536;28;20057;-58
2022/05/08 04:13:57;;;;;;;6.88;3.70;;;13.20;99.90;;;;;;10379951;28;20081;-59
2022/05/08 04:18:58;;;;;;;10.45;4.35;;;13.20;99.90;;;;;;10377506;28;20046;-59
2022/05/08 04:24:18;;;;;;;12.90;5.20;;;13.30;99.90;;;;;;10382237;28;20061;-59
2022/05/08 04:29:20;;;;;;;6.28;3.65;;;13.30;99.90;;;;;;10382158;28;20060;-59
2022/05/08 04:34:22;;;;;;;10.27;4.95;;;13.30;99.90;;;;;;10372342;28;20069;-59
2022/05/08 04:39:23;;;;;;;9.82;5.38;;;13.30;99.90;;;;;;10381050;28;20054;-59
2022/05/08 04:44:25;;;;;;;10.73;5.07;;;13.30;99.90;;;;;;10364689;28;20053;-58
2022/05/08 04:49:27;;;;;;;8.77;4.97;;;13.30;99.90;;;;;;10378087;28;20469;-58
2022/05/08 04:54:29;;;;;;;10.90;5.30;;;13.30;99.90;;;;;;10380569;28;20061;-58
2022/05/08 04:59:31;;;;;;;12.32;5.65;;;13.30;99.90;;;;;;10384358;28;20056;-59
2022/05/08 05:04:32;;;;;;;11.73;5.13;;;13.30;99.90;;;;;;10380277;28;20046;-58
2022/05/08 05:09:34;;;;;;;10.95;6.00;;;13.40;99.90;;;;;;10381773;28;20057;-59
2022/05/08 05:14:36;;;;;;;9.65;5.18;;;13.40;99.90;;;;;;10380858;28;20045;-59
2022/05/08 05:19:37;;;;;;;11.73;6.70;;;13.40;99.90;;;;;;10369193;28;20053;-59
2022/05/08 05:24:39;;;;;;;10.95;5.95;;;13.50;99.90;;;;;;10381640;28;20049;-59
2022/05/08 05:29:41;;;;;;;8.90;5.38;;;13.50;99.90;;;;;;10386003;28;20074;-58
2022/05/08 05:34:43;;;;;;;11.57;6.57;;;13.60;99.90;;;;;;10424975;28;20057;-58
2022/05/08 05:39:44;;;;;;;11.88;6.65;;;13.70;99.90;;;;;;10411509;28;20049;-60
2022/05/08 05:44:46;;;;;;;14.65;6.28;;;13.80;99.90;;;;;;10424862;28;20077;-58
2022/05/08 05:49:48;;;;;;;9.95;6.55;;;13.80;99.90;;;;;;10431373;28;20053;-59
2022/05/08 05:54:50;;;;;;;12.65;6.63;;;13.90;99.90;;;;;;10423392;28;20114;-58
2022/05/08 05:59:54;;;;;;;13.27;6.88;;;14.00;99.90;;;;;;10422138;28;20136;-58
2022/05/08 06:04:55;;;;;;;14.07;6.65;;;14.10;99.90;;;;;;10422095;28;20059;-59
2022/05/08 06:09:57;;;;;;;13.48;5.95;;;14.20;99.90;;;;;;10415410;28;20048;-57
2022/05/08 06:14:59;;;;;;;13.02;6.38;;;14.30;99.90;;;;;;10412158;28;20060;-59
2022/05/08 06:20:01;;;;;;;12.95;6.15;;;14.40;99.90;;;;;;10419698;28;20080;-59
2022/05/08 06:25:05;;;;;;;12.30;6.70;;;14.50;99.90;;;;;;10415630;28;20538;-59
2022/05/08 06:30:07;;;;;;;11.43;5.80;;;14.50;99.90;;;;;;10417506;28;20115;-57
2022/05/08 06:35:09;;;;;;;11.95;6.05;;;14.60;99.90;;;;;;10374167;28;20511;-58
2022/05/08 06:40:11;;;;;;;12.88;7.13;;;14.60;99.90;;;;;;10386387;28;20706;-59
2022/05/08 06:45:12;;;;;;;13.77;6.43;;;14.70;99.90;;;;;;10384501;28;20408;-60
2022/05/08 06:50:14;;;;;;;13.60;6.45;;;14.80;99.90;;;;;;10385107;28;20046;-59
2022/05/08 06:55:16;;;;;;;14.55;6.97;;;15.00;99.90;;;;;;10383503;28;20060;-58
2022/05/08 07:05:43;;;;;;;13.20;6.72;;;15.10;99.90;;;;;;10385090;28;20058;-59
2022/05/08 07:10:45;;;;;;;11.65;6.00;;;15.20;99.90;;;;;;10387527;28;20061;-59
2022/05/08 07:15:47;;;;;;;14.63;6.28;;;15.30;99.90;;;;;;10383956;28;20119;-59
2022/05/08 07:21:04;;;;;;;12.27;6.13;;;15.40;99.90;;;;;;10381370;28;20163;-59
2022/05/08 07:26:06;;;;;;;11.88;6.13;;;15.60;99.90;;;;;;10381127;28;20053;-59
2022/05/08 07:31:08;;;;;;;12.18;6.50;;;15.70;99.90;;;;;;10395423;28;20053;-60
2022/05/08 07:36:13;;;;;;;13.73;7.22;;;15.80;99.90;;;;;;10432272;28;20073;-60
2022/05/08 07:41:16;;;;;;;9.88;5.82;;;16.00;99.90;;;;;;10428996;28;20118;-59
2022/05/08 07:46:18;;;;;;;10.00;5.35;;;16.10;99.90;;;;;;10432720;28;20549;-61
2022/05/08 07:51:20;;;;;;;9.15;5.70;;;16.20;99.90;;;;;;10424101;28;20048;-59
2022/05/08 07:56:22;;;;;;;12.50;6.63;;;16.40;99.90;;;;;;10421850;28;20118;-61
2022/05/08 08:01:23;;;;;;;8.77;5.60;;;16.40;99.90;;;;;;10429425;28;20140;-61
2022/05/08 08:06:45;;;;;;;11.05;5.57;;;16.70;99.90;;;;;;10417663;28;20147;-60
2022/05/08 08:11:47;;;;;;;9.30;5.80;;;16.70;99.90;;;;;;10428672;28;20072;-59
2022/05/08 08:16:49;;;;;;;9.10;4.78;;;17.00;99.90;;;;;;10433397;28;20080;-61
2022/05/08 08:21:52;;;;;;;7.50;4.80;;;17.20;99.90;;;;;;10434762;28;20511;-60
2022/05/08 08:26:53;;;;;;;10.68;4.53;;;17.30;99.90;;;;;;10420083;28;20057;-60
2022/05/08 08:31:55;;;;;;;7.15;4.78;;;17.50;97.60;;;;;;10403570;28;20053;-59
2022/05/08 08:36:57;;;;;;;10.77;5.13;;;17.60;97.60;;;;;;10383415;28;20049;-61
2022/05/08 08:42:16;;;;;;;10.73;5.72;;;17.70;98.00;;;;;;10382641;28;20574;-61
2022/05/08 08:52:38;;;;;;;7.47;4.03;;;18.10;95.50;;;;;;10378933;28;20049;-60
2022/05/08 08:57:40;;;;;;;8.90;4.38;;;18.20;94.80;;;;;;10379487;28;20545;-60
2022/05/08 09:02:42;;;;;;;8.13;4.38;;;18.30;94.90;;;;;;10381106;28;20151;-60
2022/05/08 09:07:52;;;;;;;7.13;4.13;;;18.40;92.10;;;;;;10378629;28;20139;-60
2022/05/08 09:12:54;;;;;;;6.03;3.97;;;18.60;91.60;;;;;;10380294;28;20050;-59
2022/05/08 09:18:01;;;;;;;8.70;3.67;;;18.80;90.00;;;;;;10380384;28;20061;-59
2022/05/08 09:23:23;;;;;;;7.20;3.53;;;19.00;91.20;;;;;;10375006;28;20058;-60
2022/05/08 09:28:33;;;;;;;6.55;3.38;;;19.10;88.30;;;;;;10378094;28;20049;-60
2022/05/08 09:33:37;;;;;;;6.15;3.58;;;19.20;86.90;;;;;;10377742;28;20053;-59
2022/05/08 09:38:45;;;;;;;7.40;2.88;;;19.40;86.20;;;;;;10373059;28;20139;-60
2022/05/08 09:43:48;;;;;;;5.03;3.15;;;19.60;86.50;;;;;;10356182;28;20069;-60
2022/05/08 09:48:51;;;;;;;8.32;3.88;;;19.60;82.70;;;;;;10381305;28;20096;-60
2022/05/08 09:53:53;;;;;;;5.43;3.08;;;19.60;85.20;;;;;;10378990;28;20060;-59
2022/05/08 09:58:55;;;;;;;5.15;3.35;;;19.90;86.90;;;;;;10380701;28;20399;-60
2022/05/08 10:03:57;;;;;;;6.80;3.28;;;19.90;85.80;;;;;;10369542;28;20057;-61
2022/05/08 10:13:53;;;;;;;8.57;3.72;;;20.20;84.40;;;;;;10377534;28;20053;-62
2022/05/08 10:14:24;;;;;;;7.35;3.72;;;20.30;81.30;;;;;;10375227;28;20053;-60
2022/05/08 10:19:26;;;;;;;5.22;3.05;;;20.40;80.90;;;;;;10379170;28;20069;-60
2022/05/08 10:24:38;;;;;;;3.55;2.72;;;20.60;80.60;;;;;;10372914;28;20064;-62
2022/05/08 10:30:03;;;;;;;6.07;2.95;;;20.70;76.40;;;;;;10378371;28;20052;-61
2022/05/08 10:35:13;;;;;;;4.72;2.22;;;21.20;77.20;;;;;;10417651;28;20061;-61
2022/05/08 10:40:23;;;;;;;4.82;2.67;;;21.70;72.90;;;;;;10423397;28;20060;-63
2022/05/08 10:45:34;;;;;;;3.65;2.45;;;22.10;71.80;;;;;;10411413;28;20056;-63
2022/05/08 10:50:37;;;;;;;6.93;3.72;;;22.50;71.30;;;;;;10419565;28;20053;-63
2022/05/08 10:55:38;;;;;;;3.47;2.90;;;22.70;67.60;;;;;;10417880;28;20486;-65
2022/05/08 11:00:40;;;;;;;4.15;2.85;;;23.10;64.50;;;;;;10420990;28;20059;-65
2022/05/08 11:05:43;;;;;;;3.55;2.50;;;23.60;61.70;;;;;;10394122;28;20416;-64
2022/05/08 11:10:44;;;;;;;3.58;2.10;;;23.60;62.70;;;;;;10421535;28;20499;-62
2022/05/08 11:15:48;;;;;;;3.97;2.28;;;24.00;61.60;;;;;;10414939;28;20087;-63
2022/05/08 11:21:01;;;;;;;6.78;2.90;;;24.30;61.90;;;;;;10403696;28;20048;-65
2022/05/08 11:26:07;;;;;;;6.18;3.20;;;24.50;60.20;;;;;;10423530;28;20522;-64
2022/05/08 11:31:17;;;;;;;11.68;3.83;;;24.80;57.70;;;;;;10406931;28;20065;-64
2022/05/08 11:36:34;;;;;;;2.92;2.25;;;24.90;57.50;;;;;;10375602;28;20056;-68
2022/05/08 11:41:39;;;;;;;5.10;1.40;;;25.10;56.40;;;;;;10377946;28;20049;-66
2022/05/08 11:46:45;;;;;;;6.65;2.22;;;25.30;56.50;;;;;;10377229;28;20058;-69
2022/05/08 11:51:53;;;;;;;3.25;1.40;;;25.40;56.30;;;;;;10381951;28;20056;-66
2022/05/08 11:57:17;;;;;;;2.45;1.45;;;25.10;55.40;;;;;;10379326;28;20056;-70
2022/05/08 12:02:44;;;;;;;3.60;1.30;;;25.60;55.70;;;;;;10361097;28;20106;-67
2022/05/08 12:07:46;;;;;;;3.97;1.38;;;25.50;55.50;;;;;;10366355;28;20212;-69
2022/05/08 12:13:04;;;;;;;5.97;1.65;;;25.60;55.30;;;;;;10382227;28;20477;-69
2022/05/08 12:18:06;;;;;;;2.00;1.38;;;25.70;55.60;;;;;;10380408;28;20056;-66
2022/05/08 12:23:15;;;;;;;3.08;1.77;;;25.50;55.40;;;;;;10383153;28;20053;-70
2022/05/08 12:28:17;;;;;;;3.75;1.83;;;25.40;56.90;;;;;;10381996;28;20103;-66
2022/05/08 12:33:19;;;;;;;7.53;1.58;;;25.40;55.80;;;;;;10343582;28;1031684;-71
2022/05/08 12:38:21;;;;;;;2.55;1.38;;;25.30;55.30;;;;;;10383759;28;20060;-70
2022/05/08 12:43:22;;;;;;;2.13;1.33;;;24.90;54.10;;;;;;10375206;28;20065;-68
2022/05/08 12:48:24;;;;;;;2.88;1.65;;;24.90;55.80;;;;;;10383983;28;20068;-64
2022/05/08 12:53:26;;;;;;;7.13;1.80;;;24.70;55.20;;;;;;10382522;28;20069;-67
2022/05/08 13:03:48;;;;;;;2.20;1.00;;;24.60;55.20;;;;;;10384868;28;20115;-66
2022/05/08 13:08:50;;;;;;;4.90;3.13;;;25.10;54.70;;;;;;10373671;28;20053;-65
2022/05/08 13:13:52;;;;;;;4.28;2.10;;;25.50;52.40;;;;;;10379574;28;20064;-64
2022/05/08 13:18:53;;;;;;;3.22;1.30;;;25.80;52.90;;;;;;10380038;28;20061;-66
2022/05/08 13:23:55;;;;;;;2.08;0.93;;;26.10;52.00;;;;;;10383770;28;20050;-66
2022/05/08 13:28:57;;;;;;;1.85;1.02;;;26.50;50.70;;;;;;10380661;28;20054;-65
2022/05/08 13:33:59;;;;;;;6.45;1.20;;;26.70;51.00;;;;;;10414323;28;20112;-66
2022/05/08 13:39:00;;;;;;;1.90;1.10;;;26.40;49.80;;;;;;10419174;28;20057;-64
2022/05/08 13:44:03;;;;;;;1.27;1.00;;;27.00;50.00;;;;;;10419484;28;20053;-67
2022/05/08 13:49:05;;;;;;;1.88;0.88;;;26.90;48.60;;;;;;10414610;28;21379;-66
2022/05/08 13:54:08;;;;;;;2.05;1.08;;;27.00;48.80;;;;;;10422217;28;20059;-67
2022/05/08 13:59:10;;;;;;;3.55;1.17;;;26.90;48.00;;;;;;10395008;28;20144;-67
2022/05/08 14:04:12;;;;;;;2.65;0.90;;;27.20;49.10;;;;;;10442249;28;20056;-65
2022/05/08 14:09:15;;;;;;;4.25;1.13;;;27.10;48.70;;;;;;10433670;28;20057;-65
2022/05/08 14:14:26;;;;;;;2.58;1.10;;;27.50;48.80;;;;;;10401509;28;20416;-64
2022/05/08 14:19:34;;;;;;;2.38;1.17;;;27.50;49.00;;;;;;10412392;28;20045;-64
2022/05/08 14:24:36;;;;;;;3.80;1.00;;;27.80;47.60;;;;;;10420145;28;20064;-66
2022/05/08 14:29:38;;;;;;;6.75;1.30;;;27.50;46.40;;;;;;10417363;28;20053;-66
2022/05/08 14:40:00;;;;;;;3.03;0.85;;;27.70;46.10;;;;;;10377345;28;20053;-65
2022/05/08 14:45:03;;;;;;;1.63;1.00;;;27.30;47.60;;;;;;10362876;28;20063;-63
2022/05/08 14:50:06;;;;;;;2.03;0.90;;;27.30;48.20;;;;;;10376589;28;20061;-65
2022/05/08 14:55:07;;;;;;;2.65;0.90;;;27.70;48.00;;;;;;10376643;28;20470;-67
2022/05/08 15:00:10;;;;;;;0.90;0.80;;;27.60;47.60;;;;;;10383102;28;20139;-66
2022/05/08 15:05:12;;;;;;;2.42;0.70;;;27.50;49.60;;;;;;10387225;28;20076;-64
2022/05/08 15:10:14;;;;;;;3.45;0.75;;;27.50;50.20;;;;;;10385198;28;20049;-66
2022/05/08 15:15:15;;;;;;;0.80;0.60;;;27.00;49.90;;;;;;10387449;28;20064;-64
2022/05/08 15:20:17;;;;;;;0.65;0.60;;;26.40;50.40;;;;;;10382704;28;20053;-64
2022/05/08 15:25:19;;;;;;;4.47;0.60;;;26.20;50.80;;;;;;10387402;28;20057;-64
2022/05/08 15:30:21;;;;;;;2.67;0.50;;;25.90;51.70;;;;;;10384690;28;20057;-64
2022/05/08 15:35:23;;;;;;;2.03;0.40;;;25.70;50.80;;;;;;10385508;28;20053;-63
2022/05/08 15:40:25;;;;;;;1.00;0.43;;;25.70;51.30;;;;;;10382037;28;20961;-65
2022/05/08 15:45:26;;;;;;;0.52;0.30;;;25.30;51.60;;;;;;10378256;28;20054;-64
2022/05/08 15:50:28;;;;;;;1.77;0.47;;;24.90;51.90;;;;;;10384978;28;20050;-63
2022/05/08 15:55:32;;;;;;;5.15;0.60;;;24.50;52.40;;;;;;10386166;28;20038;-65
2022/05/08 16:00:34;;;;;;;0.30;0.22;;;24.50;53.20;;;;;;10362545;28;20045;-64
2022/05/08 16:05:36;;;;;;;0.52;0.38;;;24.40;53.20;;;;;;10367601;28;20045;-63
2022/05/08 16:10:39;;;;;;;0.85;0.40;;;24.20;53.30;;;;;;10371161;28;20064;-63
2022/05/08 16:26:23;;;;;;;0.40;0.30;;;23.60;53.50;;;;;;10372280;28;20064;-63
2022/05/08 16:31:26;;;;;;;3.88;0.40;;;23.60;53.20;;;;;;10396826;28;20053;-64
2022/05/08 16:36:28;;;;;;;1.25;0.40;;;23.70;53.80;;;;;;10419200;28;20064;-62
2022/05/08 16:41:31;;;;;;;0.80;0.47;;;24.00;53.70;;;;;;10426026;28;20061;-61
2022/05/08 16:46:34;;;;;;;1.35;0.40;;;24.00;54.20;;;;;;10422943;28;20053;-64
2022/05/08 16:51:37;;;;;;;3.58;0.40;;;23.70;54.70;;;;;;10418629;28;20134;-63
2022/05/08 16:56:39;;;;;;;0.95;0.40;;;23.60;54.70;;;;;;10419797;28;20102;-62
2022/05/08 17:01:41;;;;;;;0.88;0.40;;;23.30;55.30;;;;;;10419571;28;20045;-64
2022/05/08 17:06:44;;;;;;;1.75;0.60;;;23.40;56.10;;;;;;10424371;28;20053;-63
2022/05/08 17:11:46;;;;;;;1.25;0.60;;;23.80;55.60;;;;;;10410025;28;20060;-66
2022/05/08 17:16:47;;;;;;;1.10;0.80;;;23.60;56.90;;;;;;10424946;28;20053;-64
2022/05/08 17:21:50;;;;;;;3.55;1.33;;;23.50;57.80;;;;;;10406870;28;20053;-60
2022/05/08 17:32:13;;;;;;;1.83;1.17;;;23.30;58.90;;;;;;10400341;28;20047;-61
2022/05/08 17:37:15;;;;;;;5.05;1.75;;;23.40;59.90;;;;;;10386324;28;21998;-60
2022/05/08 17:42:17;;;;;;;3.88;1.23;;;23.60;59.50;;;;;;10418330;28;20056;-60
2022/05/08 17:47:18;;;;;;;6.45;1.30;;;23.80;59.20;;;;;;10397197;28;20415;-59
2022/05/08 17:52:20;;;;;;;3.50;1.60;;;23.60;58.20;;;;;;10416893;28;20084;-58
2022/05/08 17:57:22;;;;;;;2.58;1.35;;;23.40;58.90;;;;;;10421408;28;20045;-59
2022/05/08 18:07:45;;;;;;;3.17;1.85;;;22.70;60.70;;;;;;10417555;28;20049;-60
2022/05/08 18:12:47;;;;;;;3.10;1.50;;;22.40;62.00;;;;;;10420731;28;20187;-60
2022/05/08 18:17:50;;;;;;;2.78;1.40;;;22.10;62.50;;;;;;10426911;28;20076;-59
2022/05/08 18:22:52;;;;;;;5.72;1.38;;;21.70;63.10;;;;;;10410320;28;20082;-59
2022/05/08 18:27:54;;;;;;;3.97;1.40;;;21.50;64.50;;;;;;10412465;28;20053;-59
2022/05/08 18:32:59;;;;;;;3.80;1.40;;;21.10;65.50;;;;;;10390935;28;20530;-60
2022/05/08 18:38:01;;;;;;;3.42;1.33;;;20.90;66.50;;;;;;10377938;28;20545;-60
2022/05/08 18:43:04;;;;;;;3.42;1.65;;;20.60;67.70;;;;;;10375153;28;20053;-59
2022/05/08 18:48:06;;;;;;;2.13;1.48;;;20.40;68.70;;;;;;10360966;28;20057;-60
2022/05/08 18:53:08;;;;;;;3.20;1.50;;;20.20;69.60;;;;;;10375147;28;20107;-60
2022/05/08 18:58:10;;;;;;;4.13;1.50;;;20.00;70.60;;;;;;10377655;28;20057;-58
2022/05/08 19:03:11;;;;;;;1.52;1.00;;;19.80;70.90;;;;;;10380339;28;20116;-60
2022/05/08 19:08:13;;;;;;;7.97;1.65;;;19.50;71.50;;;;;;10375671;28;20049;-61
2022/05/08 19:13:15;;;;;;;2.45;1.38;;;19.40;72.10;;;;;;10365935;28;20052;-59
2022/05/08 19:18:16;;;;;;;2.63;1.10;;;19.20;73.40;;;;;;10377838;28;20123;-64
2022/05/08 19:23:18;;;;;;;4.30;1.02;;;19.10;73.40;;;;;;10377885;28;20041;-64
2022/05/08 19:28:20;;;;;;;3.58;1.00;;;18.90;74.10;;;;;;10348543;28;20053;-64
2022/05/08 19:38:44;;;;;;;3.03;0.70;;;18.50;74.30;;;;;;10375668;28;20057;-64
2022/05/08 19:43:46;;;;;;;3.95;1.00;;;18.40;74.20;;;;;;10364140;28;20059;-65
2022/05/08 19:48:47;;;;;;;3.13;0.93;;;18.20;74.20;;;;;;10374525;28;20111;-64
2022/05/08 19:53:49;;;;;;;4.55;0.57;;;18.00;74.60;;;;;;10382852;28;20065;-65
2022/05/08 19:58:51;;;;;;;3.67;0.60;;;17.90;73.90;;;;;;10370487;28;20073;-65
2022/05/08 20:03:53;;;;;;;3.10;0.55;;;17.80;74.10;;;;;;10350775;28;20766;-64
2022/05/08 20:08:56;;;;;;;3.42;0.77;;;17.60;73.70;;;;;;10360460;28;20049;-63
2022/05/08 20:13:57;;;;;;;3.25;0.43;;;17.50;73.40;;;;;;10350147;28;20073;-65
2022/05/08 20:18:59;;;;;;;2.78;0.50;;;17.40;72.30;;;;;;10369359;28;20080;-65
2022/05/08 20:24:01;;;;;;;2.95;0.50;;;17.20;71.80;;;;;;10352136;28;20050;-64
2022/05/08 20:29:03;;;;;;;0.82;0.40;;;17.10;71.70;;;;;;10383399;28;20056;-65
2022/05/08 20:34:04;;;;;;;3.15;0.40;;;17.00;71.50;;;;;;10433404;28;20115;-64
2022/05/08 20:39:06;;;;;;;2.70;0.30;;;17.00;71.50;;;;;;10435024;28;20056;-64
2022/05/08 20:44:09;;;;;;;2.58;0.50;;;16.80;71.50;;;;;;10424954;28;20114;-64
2022/05/08 20:49:11;;;;;;;1.98;0.40;;;16.80;72.00;;;;;;10427113;28;20076;-65
2022/05/08 20:54:14;;;;;;;2.17;0.52;;;16.60;72.30;;;;;;10430941;28;20068;-65
2022/05/08 20:59:16;;;;;;;1.58;0.40;;;16.50;72.70;;;;;;10422371;28;20077;-64
2022/05/08 21:04:17;;;;;;;2.45;0.75;;;16.50;73.30;;;;;;10425674;28;20133;-63
2022/05/08 21:09:19;;;;;;;1.30;0.25;;;16.40;73.80;;;;;;10438653;28;22234;-64
2022/05/08 21:14:21;;;;;;;0.65;0.30;;;16.30;74.80;;;;;;10411400;28;20052;-65
2022/05/08 21:19:24;;;;;;;2.35;0.30;;;16.20;74.40;;;;;;10428791;28;20053;-64
2022/05/08 21:24:26;;;;;;;2.20;0.50;;;16.10;74.80;;;;;;10422129;28;20048;-66
2022/05/08 21:29:27;;;;;;;2.30;0.40;;;16.10;74.90;;;;;;10411223;28;20557;-64
2022/05/08 21:34:29;;;;;;;3.95;0.30;;;16.00;75.50;;;;;;10429493;28;20057;-64
2022/05/08 21:39:31;;;;;;;4.15;0.30;;;15.90;75.20;;;;;;10426468;28;20466;-65
2022/05/08 21:44:33;;;;;;;2.67;0.50;;;15.80;75.40;;;;;;10408375;28;20048;-65
2022/05/08 21:49:34;;;;;;;2.55;0.30;;;15.70;75.90;;;;;;10409209;28;20479;-65
2022/05/08 21:54:36;;;;;;;1.08;0.30;;;15.70;76.30;;;;;;10422063;28;20565;-64
2022/05/08 21:59:38;;;;;;;0.90;0.25;;;15.60;76.80;;;;;;10419998;28;20506;-65
2022/05/08 22:04:40;;;;;;;3.92;0.40;;;15.60;77.90;;;;;;10429787;28;20053;-65
2022/05/08 22:09:42;;;;;;;1.05;0.40;;;15.50;78.40;;;;;;10413424;28;20116;-66
2022/05/08 22:14:44;;;;;;;3.95;0.63;;;15.50;79.30;;;;;;10425576;28;20134;-65
2022/05/08 22:19:46;;;;;;;4.10;1.27;;;15.40;80.90;;;;;;10427453;28;20053;-64
2022/05/08 22:24:48;;;;;;;4.60;0.63;;;15.30;81.30;;;;;;10431564;28;20187;-65
2022/05/08 22:29:49;;;;;;;3.65;0.90;;;15.30;81.90;;;;;;10424299;28;20385;-65
2022/05/08 22:34:51;;;;;;;5.22;0.65;;;15.20;82.90;;;;;;10376226;28;20115;-63
2022/05/08 22:39:53;;;;;;;2.55;0.50;;;15.20;83.80;;;;;;10377038;28;20519;-64
2022/05/08 22:44:54;;;;;;;1.75;0.52;;;15.10;84.70;;;;;;10377185;28;20049;-64
2022/05/08 22:49:56;;;;;;;2.35;0.50;;;15.00;84.90;;;;;;10378937;28;20072;-65
2022/05/08 22:54:58;;;;;;;4.22;0.38;;;15.00;85.80;;;;;;10380657;28;20549;-66
2022/05/08 23:00:00;;;;;;;3.00;0.82;;;14.90;87.20;;;;;;10376139;28;20062;-66
2022/05/08 23:05:02;;;;;;;1.00;0.40;;;14.90;88.00;;;;;;10373634;28;20538;-66
2022/05/08 23:10:04;;;;;;;4.07;0.40;;;14.70;87.80;;;;;;10378026;28;20108;-65
2022/05/08 23:15:23;;;;;;;2.45;0.40;;;14.60;89.30;;;;;;10379366;28;20050;-66
2022/05/08 23:20:31;;;;;;;0.73;0.30;;;14.50;90.40;;;;;;10377037;28;20140;-65
2022/05/08 23:25:36;;;;;;;4.05;0.65;;;14.40;90.40;;;;;;10389955;28;20054;-66
2022/05/08 23:30:43;;;;;;;2.22;0.50;;;14.30;91.30;;;;;;10401440;28;20915;-66
2022/05/08 23:35:45;;;;;;;1.48;0.30;;;14.30;92.00;;;;;;10429440;28;20048;-66
2022/05/08 23:40:47;;;;;;;3.55;0.40;;;14.10;92.20;;;;;;10424455;28;20072;-65
2022/05/08 23:45:48;;;;;;;3.08;0.45;;;14.00;93.00;;;;;;10412939;28;20057;-65
2022/05/08 23:51:22;;;;;;;3.33;0.40;;;14.00;93.80;;;;;;10430537;28;20132;-65
2022/05/08 23:56:17;;;;;;;1.90;0.40;;;13.90;94.10;;;;;;10437433;28;20053;-66
